Latest Weather Observations for Minnipa RS

IDS60801

Issued at 2:35 pm CDT Friday 31 October 2014 (issued every 30 minutes, with the page automatically refreshed every 10 minutes)

About weather observations | Map of weather stations | Latest weather observations for SA | Other Formats
Station Details ID: 018195 Name: MINNIPA PIRSA Lat: -32.84 Lon: 135.15 Height: 165.0 m
Data from the previous 72 hours. | See also: Recent months at Minnipa RS
Date/Time
CDT
Temp
°C
App
Temp
°C
Dew
Point
Rel
Hum
%
Delta-T
°C
Wind Press
QNH
hPa
Press
MSL
hPa
Rain
since 9 am
mm
Dir
 
Spd
km/h
Gust
km/h
Spd
kts
Gust
kts
31/02:30pm 29.5 25.2 8.0 26 11.9 SSW 20 30 11 16 1003.9 - 0.0
31/02:00pm 29.5 24.7 7.4 25 12.1 SW 22 33 12 18 1004.2 - 0.0
31/01:30pm 27.8 22.9 7.1 27 11.1 SW 22 30 12 16 1004.7 - 0.0
31/01:00pm 27.8 21.4 7.1 27 11.1 SW 30 39 16 21 1005.3 - 0.0
31/12:30pm 30.8 24.9 3.8 18 13.9 WSW 24 32 13 17 1005.3 - 0.0
31/12:00pm 29.5 23.8 2.7 18 13.5 WNW 22 32 12 17 1005.4 1005.0 0.0
31/11:30am 28.5 23.1 2.7 19 12.9 WNW 20 30 11 16 1005.3 - 0.0
31/11:00am 28.4 23.2 2.6 19 12.8 NW 19 24 10 13 1005.3 - 0.0
31/10:30am 27.4 22.1 1.8 19 12.5 NW 19 24 10 13 1005.4 - 0.0
31/10:00am 27.9 22.8 0.6 17 13.1 WNW 17 24 9 13 1005.2 - 0.0
31/09:30am 27.7 22.8 2.0 19 12.6 WNW 17 22 9 12 1005.2 - 0.0
31/09:00am 26.3 20.3 0.9 19 12.1 WNW 22 32 12 17 1005.4 1005.0 0.0
31/08:30am 25.7 19.0 -1.2 17 12.3 NNW 24 30 13 16 1005.3 - 0.0
31/08:00am 24.9 18.6 -1.0 18 11.8 N 22 30 12 16 1005.2 - 0.0
31/07:30am 21.8 16.4 -1.5 21 10.2 N 17 20 9 11 1005.1 - 0.0
31/07:00am 22.5 16.8 -0.9 21 10.5 NNE 19 22 10 12 1004.9 - 0.0
31/06:30am 22.1 16.1 -1.2 21 10.3 NNE 20 24 11 13 1004.7 - 0.0
31/06:00am 19.9 14.2 -0.7 25 9.1 NE 19 20 10 11 1004.7 1004.4 0.0
31/05:30am 19.5 14.1 -1.0 25 8.9 NE 17 20 9 11 1004.7 - 0.0
31/05:00am 20.4 14.6 -0.3 25 9.2 NE 20 24 11 13 1005.1 - 0.0
31/04:30am 19.4 14.2 0.4 28 8.5 NE 17 19 9 10 1005.7 - 0.0
31/04:00am 19.7 14.2 0.7 28 8.6 NE 19 20 10 11 1006.0 - 0.0
31/03:30am 20.5 15.0 0.9 27 8.9 ENE 19 20 10 11 1006.2 - 0.0
31/03:00am 21.4 16.0 1.1 26 9.4 ENE 19 22 10 12 1006.5 1006.2 0.0
31/02:30am 21.9 16.5 1.0 25 9.6 ENE 19 22 10 12 1007.1 - 0.0
31/02:00am 21.9 16.4 0.4 24 9.8 ENE 19 22 10 12 1007.6 - 0.0
31/01:30am 22.2 16.7 0.7 24 9.9 ENE 19 22 10 12 1008.2 - 0.0
31/01:00am 22.5 17.1 1.5 25 9.8 ENE 19 20 10 11 1008.6 - 0.0
31/12:30am 22.3 17.1 2.4 27 9.5 ENE 19 20 10 11 1008.8 - 0.0
31/12:00am 22.9 17.8 2.9 27 9.7 ENE 19 20 10 11 1009.0 1008.7 0.0
 
Date/Time
CDT
Temp
°C
App
Temp
°C
Dew
Point
Rel
Hum
%
Delta-T
°C
Wind Press
QNH
hPa
Press
MSL
hPa
Rain
since 9 am
mm
Dir
 
Spd
km/h
Gust
km/h
Spd
kts
Gust
kts
30/11:30pm 23.3 18.9 2.7 26 9.9 ENE 15 19 8 10 1009.2 - 0.0
30/11:00pm 23.9 19.1 2.7 25 10.3 E 17 20 9 11 1009.9 - 0.0
30/10:30pm 24.4 19.7 3.1 25 10.4 E 17 20 9 11 1010.3 - 0.0
30/10:00pm 23.3 19.0 3.3 27 9.7 E 15 17 8 9 1010.4 - 0.0
30/09:30pm 22.7 18.9 -0.7 21 10.5 SSE 9 13 5 7 1010.5 - 0.0
30/09:00pm 23.2 19.1 -6.7 13 12.0 E 7 9 4 5 1010.3 1010.0 0.0
30/08:30pm 23.5 19.4 -6.5 13 12.1 E 7 9 4 5 1010.1 - 0.0
30/08:00pm 23.9 21.1 -7.2 12 12.5 CALM 0 0 0 0 1010.0 - 0.0
30/07:30pm 28.8 26.1 -5.8 10 14.9 CALM 0 6 0 3 1009.9 - 0.0
30/07:00pm 32.1 28.6 -6.3 8 16.9 N 4 7 2 4 1009.9 - 0.0
30/06:30pm 32.3 27.9 -6.1 8 16.9 WNW 9 13 5 7 1010.1 - 0.0
30/06:00pm 31.1 27.1 -5.5 9 16.2 WNW 7 11 4 6 1010.2 1009.9 0.0
30/05:30pm 31.7 27.2 -6.6 8 16.7 NNW 9 15 5 8 1010.5 - 0.0
30/05:00pm 32.1 26.9 -6.3 8 16.9 NNW 13 20 7 11 1010.6 - 0.0
30/04:30pm 32.3 27.9 -6.1 8 16.9 N 9 15 5 8 1010.8 - 0.0
30/04:00pm 32.7 28.1 -7.6 7 17.4 NW 9 15 5 8 1011.0 - 0.0
30/03:30pm 33.1 28.7 -5.5 8 17.3 NNE 9 17 5 9 1011.3 - 0.0
30/03:00pm 33.5 28.6 -7.0 7 17.8 N 11 17 6 9 1011.7 1011.4 0.0
30/02:30pm 32.6 28.4 -7.6 7 17.3 WNW 7 15 4 8 1012.3 - 0.0
30/02:00pm 32.1 27.1 -4.7 9 16.6 W 13 20 7 11 1012.8 - 0.0
30/01:30pm 32.1 26.8 -3.3 10 16.3 WSW 15 20 8 11 1013.4 - 0.0
30/01:00pm 31.3 26.1 -2.6 11 15.7 E 15 24 8 13 1013.8 - 0.0
30/12:30pm 30.4 25.1 -3.3 11 15.4 NE 15 22 8 12 1014.3 - 0.0
30/12:00pm 29.2 23.6 -3.1 12 14.6 E 17 22 9 12 1014.9 1014.6 0.0
30/11:30am 28.7 23.7 -1.4 14 14.0 ESE 15 20 8 11 1015.2 - 0.0
30/11:00am 27.5 22.9 -1.4 15 13.3 E 13 19 7 10 1015.6 - 0.0
30/10:30am 26.6 22.5 -0.4 17 12.6 ENE 11 19 6 10 1015.9 - 0.0
30/10:00am 25.5 20.3 0.2 19 11.8 NE 17 22 9 12 1015.9 - 0.0
30/09:30am 24.0 18.8 0.4 21 10.9 NNE 17 24 9 13 1016.0 - 0.0
30/09:00am 21.2 17.5 4.7 34 8.1 N 13 20 7 11 1016.3 1016.1 0.0
30/08:30am 18.2 15.6 9.3 56 4.7 NNE 13 17 7 9 1016.1 - 0.0
30/08:00am 15.1 12.4 10.3 73 2.5 NE 15 19 8 10 1016.2 - 0.0
30/07:30am 13.0 9.4 10.0 82 1.6 ENE 19 22 10 12 1016.1 - 0.0
30/07:00am 12.5 8.9 9.9 84 1.3 ENE 19 24 10 13 1016.0 - 0.0
30/06:30am 11.3 9.2 9.6 89 0.9 E 11 13 6 7 1015.8 - 0.0
30/06:00am 11.1 8.5 9.4 89 0.9 ESE 13 17 7 9 1015.7 1015.4 0.0
30/05:30am 11.7 9.6 9.6 87 1.1 E 11 15 6 8 1015.6 - 0.0
30/05:00am 12.0 9.5 9.6 85 1.2 E 13 15 7 8 1015.3 - 0.0
30/04:30am 12.4 9.2 9.8 84 1.3 E 17 20 9 11 1015.3 - 0.0
30/04:00am 12.4 9.9 9.8 84 1.3 E 13 19 7 10 1015.6 - 0.0
30/03:30am 12.3 9.4 9.5 83 1.4 ESE 15 20 8 11 1015.7 - 0.0
30/03:00am 11.7 8.6 8.9 83 1.4 SE 15 17 8 9 1016.1 1015.9 0.0
30/02:30am 12.2 9.1 9.0 81 1.6 SE 15 19 8 10 1016.3 - 0.0
30/02:00am 11.8 9.1 8.8 82 1.5 SE 13 17 7 9 1016.5 - 0.0
30/01:30am 11.5 9.0 8.4 81 1.5 SE 11 13 6 7 1016.6 - 0.0
30/01:00am 11.2 8.7 8.1 81 1.5 SE 11 13 6 7 1017.1 - 0.0
30/12:30am 11.4 9.2 7.7 78 1.8 SE 9 11 5 6 1017.6 - 0.0
30/12:00am 12.6 9.8 8.7 77 2.0 SSE 13 17 7 9 1017.8 1017.5 0.0
 
Date/Time
CDT
Temp
°C
App
Temp
°C
Dew
Point
Rel
Hum
%
Delta-T
°C
Wind Press
QNH
hPa
Press
MSL
hPa
Rain
since 9 am
mm
Dir
 
Spd
km/h
Gust
km/h
Spd
kts
Gust
kts
29/11:30pm 13.7 11.0 9.0 73 2.4 SSE 13 19 7 10 1018.0 - 0.0
29/11:00pm 14.6 11.0 8.5 67 3.1 S 17 20 9 11 1018.4 - 0.0
29/10:30pm 15.9 11.6 6.9 55 4.5 S 19 24 10 13 1018.3 - 0.0
29/10:00pm 17.0 12.6 6.5 50 5.2 S 19 24 10 13 1017.9 - 0.0
29/09:30pm 17.4 13.5 5.4 45 5.8 S 15 20 8 11 1017.9 - 0.0
29/09:00pm 18.1 14.1 5.0 42 6.3 S 15 20 8 11 1017.7 1017.4 0.0
29/08:30pm 18.5 14.8 4.3 39 6.8 S 13 17 7 9 1017.3 - 0.0
29/08:00pm 19.3 15.4 5.4 40 6.9 SSW 15 19 8 10 1017.3 - 0.0
29/07:30pm 20.1 16.3 5.7 39 7.2 SSW 15 22 8 12 1017.1 - 0.0
29/07:00pm 22.0 17.2 5.4 34 8.3 SSW 20 28 11 15 1016.7 - 0.0
29/06:30pm 24.0 19.2 5.8 31 9.3 SSW 20 28 11 15 1016.8 - 0.0
29/06:00pm 24.0 18.9 5.8 31 9.3 SSW 22 30 12 16 1016.6 1016.4 0.0
29/05:30pm 26.0 21.1 7.1 30 10.0 SSW 22 33 12 18 1016.4 - 0.0
29/05:00pm 27.4 20.6 5.1 24 11.5 SW 30 39 16 21 1016.2 - 0.0
29/04:30pm 29.4 22.7 -0.9 14 14.3 W 24 39 13 21 1015.9 - 0.0
29/04:00pm 30.4 24.5 -1.1 13 14.9 WSW 20 30 11 16 1015.8 - 0.0
29/03:30pm 30.0 24.2 -0.4 14 14.5 SW 20 33 11 18 1016.1 - 0.0
29/03:00pm 29.9 23.8 0.5 15 14.2 W 22 32 12 17 1016.4 1016.2 0.0
29/02:30pm 28.8 22.5 -1.3 14 14.0 WSW 22 32 12 17 1016.8 - 0.0
29/02:00pm 29.1 23.3 -0.1 15 13.9 WNW 20 33 11 18 1017.1 - 0.0
29/01:30pm 28.1 22.6 1.6 18 12.9 W 20 33 11 18 1017.5 - 0.0
29/01:00pm 27.6 22.2 1.2 18 12.8 WNW 19 28 10 15 1017.9 - 0.0
29/12:30pm 27.8 23.3 2.1 19 12.6 NW 15 32 8 17 1018.3 - 0.0
29/12:00pm 27.6 23.8 4.0 22 12.0 NNW 13 20 7 11 1018.6 1018.3 0.0
29/11:30am 26.0 21.7 3.3 23 11.3 NNW 15 30 8 16 1019.0 - 0.0
29/11:00am 24.5 20.7 3.8 26 10.3 NNW 13 24 7 13 1019.4 - 0.0
29/10:30am 23.5 19.6 5.4 31 9.2 N 15 20 8 11 1019.4 - 0.0
29/10:00am 21.7 17.8 7.2 39 7.5 N 17 22 9 12 1019.4 - 0.0
29/09:30am 19.7 16.1 8.4 48 5.9 N 17 22 9 12 1019.7 - 0.0
29/09:00am 18.3 14.5 9.1 55 4.8 NNE 19 24 10 13 1019.5 1019.2 0.0
29/08:30am 15.9 12.2 9.6 66 3.3 NE 19 24 10 13 1019.7 - 0.0
29/08:00am 13.6 9.4 9.6 77 2.1 ENE 22 28 12 15 1019.7 - 0.0
29/07:30am 11.5 7.1 9.1 85 1.2 ENE 22 28 12 15 1019.7 - 0.0
29/07:00am 10.3 5.8 8.4 88 0.9 ENE 22 26 12 14 1019.6 - 0.0
29/06:30am 10.2 6.0 8.1 87 1.0 ENE 20 26 11 14 1019.6 - 0.0
29/06:00am 10.9 7.0 8.8 87 1.0 E 19 24 10 13 1019.6 1019.3 0.0
29/05:30am 11.1 7.6 8.7 85 1.2 E 17 24 9 13 1019.5 - 0.0
29/05:00am 11.2 8.1 8.8 85 1.2 E 15 20 8 11 1019.5 - 0.0
29/04:30am 10.5 6.7 7.6 82 1.4 ESE 17 20 9 11 1019.6 - 0.0
29/04:00am 10.6 7.1 7.1 79 1.7 ESE 15 20 8 11 1019.7 - 0.0
29/03:30am 11.1 7.3 7.4 78 1.8 ESE 17 20 9 11 1019.8 - 0.0
29/03:00am 11.1 8.0 7.2 77 1.9 ESE 13 20 7 11 1019.9 1019.6 0.0
29/02:30am 11.0 7.1 7.3 78 1.8 ESE 17 20 9 11 1020.1 - 0.0
29/02:00am 11.1 7.3 7.4 78 1.8 ESE 17 20 9 11 1020.4 - 0.0
29/01:30am 10.8 7.8 7.5 80 1.6 ESE 13 17 7 9 1020.7 - 0.0
29/01:00am 10.0 7.1 6.7 80 1.6 ESE 11 13 6 7 1021.0 - 0.0
29/12:30am 9.8 6.8 6.0 77 1.8 SE 11 13 6 7 1021.2 - 0.0
29/12:00am 10.5 7.6 6.5 76 1.9 SSE 11 13 6 7 1021.4 1021.2 0.0
 
Date/Time
CDT
Temp
°C
App
Temp
°C
Dew
Point
Rel
Hum
%
Delta-T
°C
Wind Press
QNH
hPa
Press
MSL
hPa
Rain
since 9 am
mm
Dir
 
Spd
km/h
Gust
km/h
Spd
kts
Gust
kts
28/11:30pm 11.6 8.7 6.7 72 2.3 SSE 11 13 6 7 1021.3 - 0.0
28/11:00pm 12.8 9.4 7.5 70 2.6 S 15 19 8 10 1021.4 - 0.0
28/10:30pm 12.9 9.5 7.8 71 2.5 S 15 19 8 10 1021.4 - 0.0
28/10:00pm 13.6 9.9 8.0 69 2.8 S 17 22 9 12 1021.2 - 0.0
28/09:30pm 14.2 10.7 8.6 69 2.8 S 17 22 9 12 1021.0 - 0.0
28/09:00pm 14.9 11.3 8.4 65 3.3 S 17 24 9 13 1020.7 1020.4 0.0
28/08:30pm 15.6 11.8 7.6 59 4.0 SSW 17 20 9 11 1020.4 - 0.0
28/08:00pm 16.8 12.5 7.2 53 4.8 SSW 19 26 10 14 1020.2 - 0.0
28/07:30pm 18.3 13.4 6.8 47 5.8 SSW 22 28 12 15 1020.0 - 0.0
28/07:00pm 19.9 15.0 7.0 43 6.6 SSW 22 30 12 16 1019.8 - 0.0
28/06:30pm 21.4 16.7 6.1 37 7.8 S 20 26 11 14 1019.6 - 0.0
28/06:00pm 22.7 18.4 5.2 32 8.8 SSW 17 24 9 13 1019.5 1019.2 0.0
28/05:30pm 22.9 18.5 4.9 31 9.0 SSW 17 26 9 14 1019.6 - 0.0
28/05:00pm 23.0 18.3 5.0 31 9.0 SSW 19 28 10 15 1019.6 - 0.0
28/04:30pm 23.7 19.1 5.6 31 9.2 SSW 19 28 10 15 1019.5 - 0.0
28/04:00pm 24.0 19.2 5.4 30 9.5 S 20 30 11 16 1019.7 - 0.0
28/03:30pm 23.8 19.4 4.7 29 9.6 S 17 24 9 13 1020.1 - 0.0
28/03:00pm 24.2 20.1 4.6 28 9.8 SSW 15 22 8 12 1020.3 1020.0 0.0

Other Formats:

Comma delimited format used in spreadsheet applications
http://www.bom.gov.au/fwo/IDS60801/IDS60801.95662.axf

JavaScript Object Notation format (JSON) in row-major order
http://www.bom.gov.au/fwo/IDS60801/IDS60801.95662.json